createdAt,value
2023-03-11T00:00:50.366Z,1.53
2023-03-11T00:03:20.247Z,1.63
2023-03-11T00:05:49.491Z,1.80
2023-03-11T00:08:21.001Z,1.90
2023-03-11T00:10:52.156Z,1.70
2023-03-11T00:13:20.814Z,2.07
2023-03-11T00:15:51.910Z,1.80
2023-03-11T00:18:20.326Z,1.33
2023-03-11T00:20:48.876Z,1.77
2023-03-11T00:23:18.536Z,1.47
2023-03-11T00:25:47.619Z,2.50
2023-03-11T00:28:17.170Z,1.97
2023-03-11T00:30:47.006Z,1.50
2023-03-11T00:33:16.864Z,2.07
2023-03-11T00:35:45.409Z,1.60
2023-03-11T00:38:16.604Z,1.83
2023-03-11T00:40:47.932Z,2.30
2023-03-11T00:43:16.815Z,1.50
2023-03-11T00:45:45.686Z,1.90
2023-03-11T00:48:15.258Z,1.67
2023-03-11T00:50:44.221Z,1.80
2023-03-11T00:53:13.122Z,1.23
2023-03-11T00:55:41.677Z,1.57
2023-03-11T00:58:12.864Z,2.03
2023-03-11T01:00:41.601Z,1.60
2023-03-11T01:03:10.234Z,1.70
2023-03-11T01:05:38.777Z,1.80
2023-03-11T01:08:07.693Z,1.80
2023-03-11T01:10:38.523Z,1.63
2023-03-11T01:13:06.951Z,2.40
2023-03-11T01:15:38.382Z,2.13
2023-03-11T01:18:08.087Z,2.67
2023-03-11T01:20:37.563Z,1.80
2023-03-11T01:23:06.161Z,1.70
2023-03-11T01:25:34.648Z,2.00
2023-03-11T01:28:03.142Z,2.73
2023-03-11T01:30:32.165Z,1.93
2023-03-11T01:33:02.147Z,1.93
2023-03-11T01:35:33.990Z,2.13
2023-03-11T01:38:02.536Z,1.77
2023-03-11T01:40:32.692Z,1.93
2023-03-11T01:43:01.632Z,2.73
2023-03-11T01:45:41.710Z,1.90
2023-03-11T01:48:12.698Z,2.00
2023-03-11T01:50:45.251Z,2.20
2023-03-11T01:53:16.345Z,2.40
2023-03-11T01:55:45.344Z,2.23
2023-03-11T01:58:18.696Z,2.10
2023-03-11T02:00:47.793Z,1.80
2023-03-11T02:03:21.927Z,2.23
2023-03-11T02:05:51.356Z,1.60
2023-03-11T02:08:19.851Z,1.40
2023-03-11T02:10:49.500Z,2.00
2023-03-11T02:13:18.684Z,2.20
2023-03-11T02:15:47.753Z,1.40
2023-03-11T02:18:20.405Z,1.70
2023-03-11T02:20:53.963Z,1.53
2023-03-11T02:23:28.384Z,1.77
2023-03-11T02:26:05.376Z,1.67
2023-03-11T02:28:37.816Z,1.43
2023-03-11T02:31:06.357Z,1.70
2023-03-11T02:33:37.369Z,1.43
2023-03-11T02:36:06.649Z,1.53
2023-03-11T02:38:35.386Z,1.40
2023-03-11T02:41:04.402Z,1.50
2023-03-11T02:43:38.758Z,1.57
2023-03-11T02:46:11.080Z,0.93
2023-03-11T02:48:40.002Z,2.13
2023-03-11T02:51:08.511Z,1.13
2023-03-11T02:53:42.096Z,1.90
2023-03-11T02:56:10.498Z,1.37
2023-03-11T02:58:40.218Z,1.83
2023-03-11T03:01:08.658Z,1.17
2023-03-11T03:03:37.280Z,1.57
2023-03-11T03:06:06.094Z,1.80
2023-03-11T03:08:34.890Z,1.40
2023-03-11T03:11:03.404Z,1.20
2023-03-11T03:13:32.411Z,1.27
2023-03-11T03:16:02.349Z,1.37
2023-03-11T03:18:31.079Z,1.80
2023-03-11T03:20:59.512Z,1.30
2023-03-11T03:23:27.939Z,1.77
2023-03-11T03:25:56.468Z,1.83
2023-03-11T03:28:24.827Z,1.47
2023-03-11T03:30:53.268Z,1.60
2023-03-11T03:33:23.068Z,1.50
2023-03-11T03:35:51.504Z,1.70
2023-03-11T03:38:19.885Z,1.50
2023-03-11T03:40:48.969Z,1.50
2023-03-11T03:43:17.401Z,1.10
2023-03-11T03:45:46.130Z,1.43
2023-03-11T03:48:15.157Z,1.97
2023-03-11T03:50:44.824Z,1.67
2023-03-11T03:53:13.275Z,1.30
2023-03-11T03:55:41.687Z,1.30
2023-03-11T03:58:10.376Z,1.27
2023-03-11T04:00:39.408Z,1.10
2023-03-11T04:03:07.981Z,1.00
2023-03-11T04:05:36.689Z,1.37
2023-03-11T04:08:06.625Z,1.70
2023-03-11T04:10:35.077Z,1.50
2023-03-11T04:13:03.441Z,1.47
2023-03-11T04:15:31.885Z,1.17
2023-03-11T04:18:00.303Z,1.30
2023-03-11T04:20:28.720Z,1.27
2023-03-11T04:22:57.103Z,1.27
2023-03-11T04:25:26.803Z,1.40
2023-03-11T04:27:55.636Z,1.50
2023-03-11T04:30:24.355Z,1.70
2023-03-11T04:32:52.851Z,1.50
2023-03-11T04:35:21.224Z,1.20
2023-03-11T04:37:49.946Z,1.60
2023-03-11T04:40:18.984Z,1.20
2023-03-11T04:42:48.676Z,1.10
2023-03-11T04:45:18.502Z,1.60
2023-03-11T04:47:49.391Z,1.63
2023-03-11T04:50:18.564Z,1.50
2023-03-11T04:52:47.401Z,1.73
2023-03-11T04:55:16.311Z,1.30
2023-03-11T04:57:45.008Z,1.53
2023-03-11T05:00:16.003Z,1.50
2023-03-11T05:02:44.702Z,1.70
2023-03-11T05:05:13.140Z,1.60
2023-03-11T05:07:41.632Z,2.13
2023-03-11T05:10:11.186Z,2.30
2023-03-11T05:12:39.667Z,2.03
2023-03-11T05:15:08.980Z,2.67
2023-03-11T05:17:38.768Z,2.50
2023-03-11T05:20:08.252Z,2.50
2023-03-11T05:22:37.001Z,2.60
2023-03-11T05:25:06.081Z,2.70
2023-03-11T05:27:34.485Z,2.70
2023-03-11T05:30:02.933Z,2.40
2023-03-11T05:32:31.570Z,2.43
2023-03-11T05:35:01.232Z,2.70
2023-03-11T05:37:31.828Z,2.10
2023-03-11T05:40:00.252Z,2.67
2023-03-11T05:42:28.654Z,2.40
2023-03-11T05:44:57.106Z,3.00
2023-03-11T05:47:25.837Z,3.07
2023-03-11T05:49:54.358Z,2.60
2023-03-11T05:52:24.299Z,2.83
2023-03-11T05:54:53.184Z,3.00
2023-03-11T05:57:22.155Z,2.47
2023-03-11T05:59:50.576Z,3.23
2023-03-11T06:02:21.195Z,3.07
2023-03-11T06:04:49.761Z,3.03
2023-03-11T06:07:18.288Z,3.30
2023-03-11T06:09:48.052Z,3.03
2023-03-11T06:12:16.479Z,3.30
2023-03-11T06:14:44.906Z,3.50
2023-03-11T06:17:13.309Z,3.67
2023-03-11T06:19:41.724Z,3.93
2023-03-11T06:22:10.176Z,4.13
2023-03-11T06:24:38.577Z,3.63
2023-03-11T06:27:09.309Z,3.97
2023-03-11T06:29:38.021Z,3.80
2023-03-11T06:32:06.890Z,3.37
2023-03-11T06:34:35.401Z,3.83
2023-03-11T06:37:03.762Z,3.57
2023-03-11T06:39:32.495Z,3.73
2023-03-11T06:42:00.899Z,4.17
2023-03-11T06:44:30.503Z,3.73
2023-03-11T06:46:58.981Z,4.73
2023-03-11T06:49:27.363Z,6.60
2023-03-11T06:51:55.800Z,7.40
2023-03-11T06:54:24.195Z,7.13
2023-03-11T06:56:52.603Z,6.60
2023-03-11T06:59:22.940Z,6.03
2023-03-11T07:01:52.564Z,5.50
2023-03-11T07:04:21.098Z,4.60
2023-03-11T07:06:49.538Z,4.63
2023-03-11T07:09:18.314Z,4.50
2023-03-11T07:11:46.796Z,4.37
2023-03-11T07:14:15.472Z,5.67
2023-03-11T07:16:43.953Z,5.93
2023-03-11T07:19:14.330Z,5.73
2023-03-11T07:21:43.230Z,5.30
2023-03-11T07:24:14.290Z,4.93
2023-03-11T07:26:44.576Z,4.27
2023-03-11T07:29:13.115Z,4.57
2023-03-11T07:31:42.370Z,3.80
2023-03-11T07:34:14.459Z,4.87
2023-03-11T07:36:43.612Z,5.20
2023-03-11T07:39:15.423Z,5.43
2023-03-11T07:41:44.224Z,4.80
2023-03-11T07:44:13.761Z,5.20
2023-03-11T07:46:43.876Z,5.20
2023-03-11T07:49:14.443Z,4.50
2023-03-11T07:51:44.082Z,4.60
2023-03-11T07:54:13.054Z,4.20
2023-03-11T07:56:41.774Z,3.93
2023-03-11T07:59:10.628Z,3.30
2023-03-11T08:01:41.263Z,3.47
2023-03-11T08:04:14.312Z,3.40
2023-03-11T08:06:46.866Z,3.30
2023-03-11T08:09:15.541Z,4.00
2023-03-11T08:11:43.962Z,4.27
2023-03-11T08:14:12.387Z,4.13
2023-03-11T08:16:42.017Z,4.43
2023-03-11T08:19:13.156Z,4.95
2023-03-11T08:21:41.780Z,4.57
2023-03-11T08:24:14.594Z,5.47
2023-03-11T08:26:43.202Z,4.90
2023-03-11T08:29:11.974Z,4.77
2023-03-11T08:31:40.505Z,4.70
2023-03-11T08:34:11.966Z,5.17
2023-03-11T08:36:40.606Z,3.77
2023-03-11T08:39:09.684Z,4.37
2023-03-11T08:41:39.518Z,4.60
2023-03-11T08:44:07.901Z,4.37
2023-03-11T08:46:38.549Z,3.70
2023-03-11T08:49:07.717Z,3.83
2023-03-11T08:51:37.164Z,4.20
2023-03-11T08:54:06.091Z,3.70
2023-03-11T08:56:34.625Z,3.93
2023-03-11T08:59:04.630Z,4.27
2023-03-11T09:01:33.072Z,3.53
2023-03-11T09:04:01.403Z,3.37
2023-03-11T09:06:30.963Z,4.40
2023-03-11T09:08:59.640Z,4.73
2023-03-11T09:11:28.113Z,3.70
2023-03-11T09:13:56.516Z,3.40
2023-03-11T09:16:26.647Z,3.58
2023-03-11T09:18:55.123Z,3.20
2023-03-11T09:21:23.655Z,3.50
2023-03-11T09:23:52.063Z,2.97
2023-03-11T09:26:20.533Z,3.17
2023-03-11T09:28:49.899Z,2.93
2023-03-11T09:31:19.393Z,2.50
2023-03-11T09:33:50.090Z,2.80
2023-03-11T09:36:20.181Z,3.30
2023-03-11T09:38:49.480Z,2.80
2023-03-11T09:41:27.501Z,3.00
2023-03-11T09:44:06.915Z,3.27
2023-03-11T09:47:12.133Z,3.67
2023-03-11T09:49:57.426Z,3.70
2023-03-11T09:52:30.542Z,4.10
2023-03-11T09:55:00.697Z,3.13
2023-03-11T09:57:33.195Z,3.50
2023-03-11T10:00:05.016Z,3.07
2023-03-11T10:02:37.538Z,2.67
2023-03-11T10:05:15.073Z,3.63
2023-03-11T10:07:48.602Z,3.17
2023-03-11T10:10:18.652Z,2.40
2023-03-11T10:12:53.502Z,2.50
2023-03-11T10:15:26.933Z,2.53
2023-03-11T10:18:09.468Z,2.50
2023-03-11T10:20:47.397Z,2.73
2023-03-11T10:23:25.730Z,2.87
2023-03-11T10:26:01.760Z,2.17
2023-03-11T10:28:34.822Z,2.17
2023-03-11T10:31:08.265Z,2.33
2023-03-11T10:33:41.209Z,1.93
2023-03-11T10:36:17.321Z,2.10
2023-03-11T10:38:48.754Z,2.40
2023-03-11T10:41:22.453Z,3.77
2023-03-11T10:43:53.919Z,2.13
2023-03-11T10:46:25.660Z,1.70
2023-03-11T10:48:54.159Z,1.73
2023-03-11T10:51:26.734Z,1.30
2023-03-11T10:53:56.089Z,2.07
2023-03-11T10:56:29.188Z,1.73
2023-03-11T10:58:57.800Z,1.43
2023-03-11T11:01:26.981Z,1.30
2023-03-11T11:03:56.875Z,1.10
2023-03-11T11:06:29.613Z,1.47
2023-03-11T11:09:15.134Z,1.60
2023-03-11T11:11:44.648Z,1.43
2023-03-11T11:14:13.052Z,1.37
2023-03-11T11:16:42.553Z,1.10
2023-03-11T11:19:13.244Z,1.03
2023-03-11T11:21:46.042Z,1.38
2023-03-11T11:24:21.388Z,1.43
2023-03-11T11:27:06.545Z,1.57
2023-03-11T11:29:35.219Z,1.70
2023-03-11T11:32:21.610Z,1.20
2023-03-11T11:34:58.570Z,1.07
2023-03-11T11:37:32.534Z,1.80
2023-03-11T11:40:11.384Z,1.90
2023-03-11T11:42:41.203Z,1.53
2023-03-11T11:45:17.153Z,3.30
2023-03-11T11:47:49.747Z,2.33
2023-03-11T11:50:24.948Z,1.20
2023-03-11T11:53:01.756Z,1.20
2023-03-11T11:55:31.945Z,1.13
2023-03-11T11:58:00.680Z,1.63
2023-03-11T12:00:35.641Z,1.23
2023-03-11T12:03:26.131Z,1.10
2023-03-11T12:05:58.504Z,1.27
2023-03-11T12:08:35.586Z,1.37
2023-03-11T12:11:07.717Z,1.53
2023-03-11T12:14:00.260Z,1.20
2023-03-11T12:16:39.507Z,1.40
2023-03-11T12:19:18.682Z,1.67
2023-03-11T12:22:03.515Z,1.70
2023-03-11T12:24:54.835Z,1.43
2023-03-11T12:27:27.929Z,1.27
2023-03-11T12:29:59.193Z,1.30
2023-03-11T12:32:34.665Z,1.30
2023-03-11T12:35:05.539Z,1.40
2023-03-11T12:37:33.986Z,1.40
2023-03-11T12:40:41.914Z,1.47
2023-03-11T12:43:26.215Z,1.30
2023-03-11T12:45:55.854Z,1.90
2023-03-11T12:48:34.819Z,1.70
2023-03-11T12:51:03.637Z,1.57
2023-03-11T12:53:46.874Z,1.70
2023-03-11T12:56:32.998Z,2.03
2023-03-11T12:59:33.498Z,1.70
2023-03-11T13:02:16.324Z,1.40
2023-03-11T13:04:59.598Z,2.07
2023-03-11T13:07:43.437Z,1.60
2023-03-11T13:10:18.080Z,2.00
2023-03-11T13:12:48.856Z,2.00
2023-03-11T13:15:36.586Z,1.90
2023-03-11T13:18:16.240Z,1.87
2023-03-11T13:20:49.134Z,2.03
2023-03-11T13:23:28.110Z,1.77
2023-03-11T13:26:29.050Z,2.03
2023-03-11T13:29:24.923Z,2.17
2023-03-11T13:32:23.186Z,2.10
2023-03-11T13:35:03.087Z,2.40
2023-03-11T13:37:41.437Z,2.37
2023-03-11T13:40:19.165Z,2.10
2023-03-11T13:42:51.008Z,1.97
2023-03-11T13:45:29.057Z,1.90
2023-03-11T13:48:02.697Z,1.50
2023-03-11T13:50:36.791Z,1.90
2023-03-11T13:53:09.706Z,1.90
2023-03-11T13:55:41.408Z,1.60
2023-03-11T13:58:17.270Z,1.77
2023-03-11T14:00:51.998Z,1.90
2023-03-11T14:03:23.042Z,1.60
2023-03-11T14:05:57.384Z,1.80
2023-03-11T14:08:28.667Z,1.20
2023-03-11T14:10:57.983Z,1.50
2023-03-11T14:13:27.764Z,1.97
2023-03-11T14:16:04.364Z,1.63
2023-03-11T14:18:41.066Z,1.87
2023-03-11T14:21:14.794Z,1.43
2023-03-11T14:23:45.119Z,1.20
2023-03-11T14:26:18.840Z,1.20
2023-03-11T14:28:50.426Z,1.70
2023-03-11T14:31:31.937Z,1.30
2023-03-11T14:34:04.458Z,1.40
2023-03-11T14:36:41.682Z,1.70
2023-03-11T14:39:33.464Z,1.87
2023-03-11T14:42:07.893Z,1.50
2023-03-11T14:44:41.759Z,1.60
2023-03-11T14:47:16.732Z,1.37
2023-03-11T14:49:47.080Z,1.13
2023-03-11T14:52:22.271Z,1.43
2023-03-11T14:54:53.490Z,1.30
2023-03-11T14:57:29.071Z,1.53
2023-03-11T14:59:58.561Z,1.37
2023-03-11T15:02:43.100Z,1.40
2023-03-11T15:05:19.538Z,1.60
2023-03-11T15:07:50.226Z,1.50
2023-03-11T15:10:18.628Z,1.10
2023-03-11T15:12:47.161Z,1.43
2023-03-11T15:15:26.897Z,1.60
2023-03-11T15:17:58.757Z,2.00
2023-03-11T15:20:31.083Z,1.47
2023-03-11T15:23:01.781Z,1.60
2023-03-11T15:25:33.316Z,1.63
2023-03-11T15:28:15.363Z,1.73
2023-03-11T15:30:44.007Z,2.00
2023-03-11T15:33:24.083Z,1.90
2023-03-11T15:35:52.579Z,1.80
2023-03-11T15:38:23.691Z,1.90
2023-03-11T15:40:55.049Z,1.60
2023-03-11T15:43:27.637Z,1.60
2023-03-11T15:45:57.602Z,2.27
2023-03-11T15:48:29.921Z,1.90
2023-03-11T15:50:59.495Z,1.73
2023-03-11T15:53:29.373Z,2.07
2023-03-11T15:56:06.880Z,1.90
2023-03-11T15:58:37.756Z,1.93
2023-03-11T16:01:06.507Z,1.67
2023-03-11T16:03:38.870Z,2.00
2023-03-11T16:06:07.832Z,2.40
2023-03-11T16:08:36.131Z,1.70
2023-03-11T16:11:04.614Z,2.60
2023-03-11T16:13:33.125Z,2.10
2023-03-11T16:16:04.537Z,1.93
2023-03-11T16:18:33.866Z,1.97
2023-03-11T16:21:10.010Z,1.90
2023-03-11T16:23:51.248Z,2.30
2023-03-11T16:26:20.789Z,2.00
2023-03-11T16:28:49.580Z,2.53
2023-03-11T16:31:18.144Z,2.00
2023-03-11T16:33:46.634Z,1.70
2023-03-11T16:36:16.288Z,2.10
2023-03-11T16:38:47.057Z,2.30
2023-03-11T16:41:16.265Z,1.97
2023-03-11T16:43:44.798Z,1.90
2023-03-11T16:46:13.539Z,2.03
2023-03-11T16:48:42.051Z,1.77
2023-03-11T16:51:10.368Z,2.47
2023-03-11T16:53:40.139Z,2.03
2023-03-11T16:56:08.820Z,2.50
2023-03-11T16:58:37.263Z,3.30
2023-03-11T17:01:05.908Z,2.67
2023-03-11T17:03:41.962Z,2.87
2023-03-11T17:06:11.476Z,2.90
2023-03-11T17:08:41.778Z,2.50
2023-03-11T17:11:17.070Z,4.90
2023-03-11T17:13:45.725Z,2.87
2023-03-11T17:16:14.346Z,2.47
2023-03-11T17:18:43.162Z,2.43
2023-03-11T17:21:13.628Z,3.30
2023-03-11T17:23:44.101Z,2.90
2023-03-11T17:26:13.679Z,3.37
2023-03-11T17:28:42.529Z,2.80
2023-03-11T17:31:13.507Z,2.10
2023-03-11T17:33:42.100Z,2.90
2023-03-11T17:36:13.845Z,2.90
2023-03-11T17:38:44.214Z,2.87
2023-03-11T17:41:14.568Z,2.70
2023-03-11T17:43:43.505Z,2.90
2023-03-11T17:46:14.427Z,2.50
2023-03-11T17:48:43.342Z,3.10
2023-03-11T17:51:13.092Z,3.07
2023-03-11T17:53:45.907Z,3.20
2023-03-11T17:56:15.825Z,2.90
2023-03-11T17:58:44.688Z,3.13
2023-03-11T18:01:14.938Z,3.50
2023-03-11T18:03:43.681Z,4.13
2023-03-11T18:06:12.965Z,3.40
2023-03-11T18:08:41.735Z,4.87
2023-03-11T18:11:13.542Z,4.67
2023-03-11T18:13:42.222Z,5.03
2023-03-11T18:16:12.676Z,4.93
2023-03-11T18:18:41.828Z,5.00
2023-03-11T18:21:12.317Z,4.03
2023-03-11T18:23:41.351Z,4.57
2023-03-11T18:26:13.458Z,4.40
2023-03-11T18:28:42.903Z,4.73
2023-03-11T18:31:12.619Z,4.70
2023-03-11T18:33:41.763Z,4.13
2023-03-11T18:36:17.425Z,4.60
2023-03-11T18:38:46.416Z,4.20
2023-03-11T18:41:16.531Z,5.00
2023-03-11T18:43:44.789Z,4.40
2023-03-11T18:46:14.836Z,4.20
2023-03-11T18:48:43.551Z,4.20
2023-03-11T18:51:13.012Z,4.90
2023-03-11T18:53:42.924Z,7.23
2023-03-11T18:56:13.870Z,6.33
2023-03-11T18:58:44.442Z,5.13
2023-03-11T19:01:14.254Z,4.93
2023-03-11T19:03:43.461Z,4.53
2023-03-11T19:06:13.413Z,5.40
2023-03-11T19:08:42.216Z,5.75
2023-03-11T19:11:12.064Z,6.10
2023-03-11T19:13:47.117Z,5.20
2023-03-11T19:16:19.370Z,5.10
2023-03-11T19:18:48.098Z,4.23
2023-03-11T19:21:17.499Z,4.20
2023-03-11T19:23:46.544Z,4.53
2023-03-11T19:26:15.451Z,5.43
2023-03-11T19:28:43.893Z,5.47
2023-03-11T19:31:12.362Z,5.80
2023-03-11T19:33:43.295Z,5.93
2023-03-11T19:36:12.471Z,5.43
2023-03-11T19:38:40.977Z,6.47
2023-03-11T19:41:11.901Z,6.53
2023-03-11T19:43:41.180Z,6.57
2023-03-11T19:46:11.825Z,6.23
2023-03-11T19:48:42.766Z,6.30
2023-03-11T19:51:11.942Z,7.10
2023-03-11T19:53:41.657Z,7.53
2023-03-11T19:56:10.631Z,7.57
2023-03-11T19:58:39.160Z,7.93
2023-03-11T20:01:07.708Z,7.90
2023-03-11T20:03:36.008Z,8.43
2023-03-11T20:06:09.311Z,8.70
2023-03-11T20:08:37.832Z,9.40
2023-03-11T20:11:07.356Z,10.07
2023-03-11T20:13:37.070Z,9.23
2023-03-11T20:16:07.601Z,8.47
2023-03-11T20:18:36.428Z,9.10
2023-03-11T20:21:10.684Z,7.93
2023-03-11T20:23:40.967Z,7.67
2023-03-11T20:26:11.172Z,8.30
2023-03-11T20:28:39.842Z,8.33
2023-03-11T20:31:14.976Z,7.50
2023-03-11T20:33:43.706Z,7.80
2023-03-11T20:36:17.052Z,7.93
2023-03-11T20:38:45.724Z,7.77
2023-03-11T20:41:14.251Z,8.20
2023-03-11T20:43:43.389Z,8.80
2023-03-11T20:46:13.367Z,7.97
2023-03-11T20:48:42.000Z,8.40
2023-03-11T20:51:14.170Z,8.60
2023-03-11T20:53:42.863Z,8.67
2023-03-11T20:56:13.055Z,9.10
2023-03-11T20:58:41.964Z,8.47
2023-03-11T21:01:14.178Z,8.20
2023-03-11T21:03:42.990Z,7.30
2023-03-11T21:06:21.083Z,7.13
2023-03-11T21:08:50.035Z,7.10
2023-03-11T21:11:19.093Z,7.17
2023-03-11T21:13:47.968Z,6.63
2023-03-11T21:16:16.570Z,5.20
2023-03-11T21:18:48.685Z,5.00
2023-03-11T21:21:19.715Z,4.83
2023-03-11T21:23:48.952Z,4.30
2023-03-11T21:26:18.157Z,4.50
2023-03-11T21:28:47.354Z,4.70
2023-03-11T21:31:17.332Z,4.63
2023-03-11T21:33:46.405Z,4.97
2023-03-11T21:36:15.825Z,5.07
2023-03-11T21:38:45.606Z,5.30
2023-03-11T21:41:15.873Z,4.87
2023-03-11T21:43:45.459Z,4.60
2023-03-11T21:46:15.864Z,4.93
2023-03-11T21:48:44.629Z,4.73
2023-03-11T21:51:13.063Z,5.10
2023-03-11T21:53:41.549Z,4.73
2023-03-11T21:56:13.324Z,4.23
2023-03-11T21:58:41.810Z,4.93
2023-03-11T22:01:11.026Z,5.43
2023-03-11T22:03:40.123Z,5.40
2023-03-11T22:06:10.979Z,5.33
2023-03-11T22:08:40.197Z,5.13
2023-03-11T22:11:12.757Z,5.73
2023-03-11T22:13:41.585Z,5.70
2023-03-11T22:16:10.387Z,6.03
2023-03-11T22:18:38.841Z,6.50
2023-03-11T22:21:10.294Z,5.67
2023-03-11T22:23:38.959Z,5.83
2023-03-11T22:26:07.385Z,5.33
2023-03-11T22:28:37.271Z,5.83
2023-03-11T22:31:07.983Z,5.17
2023-03-11T22:33:36.432Z,5.47
2023-03-11T22:36:05.863Z,5.67
2023-03-11T22:38:34.667Z,6.40
2023-03-11T22:41:06.846Z,5.97
2023-03-11T22:43:37.593Z,6.07
2023-03-11T22:46:06.949Z,6.07
2023-03-11T22:48:35.667Z,6.23
2023-03-11T22:51:04.518Z,5.87
2023-03-11T22:53:33.030Z,6.43
2023-03-11T22:56:02.468Z,5.87
2023-03-11T22:58:30.968Z,5.50
2023-03-11T23:01:01.139Z,6.40
2023-03-11T23:03:29.671Z,5.23
2023-03-11T23:05:59.702Z,5.10
2023-03-11T23:08:28.563Z,5.00
2023-03-11T23:10:56.878Z,5.40
2023-03-11T23:13:27.136Z,5.20
2023-03-11T23:15:55.612Z,5.63
2023-03-11T23:18:25.504Z,5.30
2023-03-11T23:20:53.990Z,5.53
2023-03-11T23:23:22.503Z,5.20
2023-03-11T23:25:51.050Z,5.40
2023-03-11T23:28:19.500Z,5.03
2023-03-11T23:30:48.079Z,5.20
2023-03-11T23:33:16.587Z,5.17
2023-03-11T23:35:46.335Z,5.80
2023-03-11T23:38:14.812Z,4.90
2023-03-11T23:40:43.260Z,5.37
2023-03-11T23:43:11.768Z,5.30
2023-03-11T23:45:40.023Z,4.70
2023-03-11T23:48:08.881Z,5.03
2023-03-11T23:50:37.437Z,4.83
2023-03-11T23:53:07.163Z,4.90
2023-03-11T23:55:38.698Z,5.40
2023-03-11T23:58:07.425Z,5.10
